Time;durP1;ratioP1;P1;durP2;ratioP2;P2;SDS_P1;SDS_P2;PMS_P1;PMS_P2;Temp;Humidity;BMP_temperature;BMP_pressure;BME280_temperature;BME280_humidity;BME280_pressure;Samples;Min_cycle;Max_cycle;Signal;HPM_P1;HPM_P2
2023/05/08 00:02:07;;;;;;;11.40;10.87;;;22.00;99.90;;;;;;5053951;28;20529;-67
2023/05/08 00:04:34;;;;;;;12.63;12.03;;;22.00;99.90;;;;;;5063444;28;20486;-67
2023/05/08 00:07:02;;;;;;;11.70;11.30;;;22.00;99.90;;;;;;5054141;28;20502;-67
2023/05/08 00:09:29;;;;;;;12.03;11.50;;;22.00;99.90;;;;;;5054235;28;20480;-66
2023/05/08 00:11:56;;;;;;;12.20;11.80;;;22.00;99.90;;;;;;5054042;28;20516;-67
2023/05/08 00:14:22;;;;;;;11.80;11.20;;;22.00;99.90;;;;;;5058198;28;20487;-67
2023/05/08 00:16:50;;;;;;;13.10;12.50;;;22.00;99.90;;;;;;5053912;28;20994;-67
2023/05/08 00:19:16;;;;;;;12.70;11.70;;;22.00;99.90;;;;;;5054784;28;20510;-67
2023/05/08 00:21:43;;;;;;;12.37;11.77;;;22.00;99.90;;;;;;5063045;28;20526;-67
2023/05/08 00:24:12;;;;;;;11.77;11.30;;;22.00;99.90;;;;;;5060387;28;20495;-67
2023/05/08 00:26:40;;;;;;;12.30;11.83;;;22.00;99.90;;;;;;5053736;28;20444;-67
2023/05/08 00:29:07;;;;;;;11.70;11.20;;;21.90;99.90;;;;;;5053983;28;20453;-67
2023/05/08 00:31:34;;;;;;;12.27;11.67;;;21.90;99.90;;;;;;5053383;28;20625;-67
2023/05/08 00:34:01;;;;;;;12.17;11.63;;;21.90;99.90;;;;;;5053824;28;20483;-67
2023/05/08 00:36:28;;;;;;;12.10;11.60;;;22.00;99.90;;;;;;5053595;28;20512;-66
2023/05/08 00:38:55;;;;;;;12.40;11.90;;;21.90;99.90;;;;;;5053169;28;20551;-66
2023/05/08 00:41:23;;;;;;;12.57;11.87;;;21.90;99.90;;;;;;5053875;28;20960;-67
2023/05/08 00:43:50;;;;;;;12.23;11.63;;;21.90;99.90;;;;;;5053360;28;20510;-66
2023/05/08 00:46:17;;;;;;;11.73;11.23;;;21.90;99.90;;;;;;5053411;28;20522;-66
2023/05/08 00:48:45;;;;;;;12.73;12.13;;;21.90;99.90;;;;;;5053513;28;20503;-66
2023/05/08 00:51:13;;;;;;;12.77;12.23;;;21.90;99.90;;;;;;5053434;28;20912;-66
2023/05/08 00:53:44;;;;;;;12.23;11.83;;;21.90;99.90;;;;;;5053132;28;20876;-66
2023/05/08 00:56:12;;;;;;;12.00;11.40;;;21.90;99.90;;;;;;5053114;28;20480;-66
2023/05/08 00:58:42;;;;;;;13.20;12.60;;;21.90;99.90;;;;;;5053258;28;20511;-66
2023/05/08 01:01:09;;;;;;;12.60;12.10;;;21.90;99.90;;;;;;5053274;28;20441;-66
2023/05/08 01:03:37;;;;;;;12.47;12.00;;;21.90;99.90;;;;;;5053338;28;20534;-66
2023/05/08 01:06:05;;;;;;;11.43;10.93;;;21.90;99.90;;;;;;5052939;28;20476;-66
2023/05/08 01:08:32;;;;;;;13.13;12.53;;;21.90;99.90;;;;;;5052679;28;20859;-66
2023/05/08 01:11:08;;;;;;;11.87;11.43;;;21.90;99.90;;;;;;5102008;22;20532;-60
2023/05/08 01:13:49;;;;;;;12.53;12.03;;;21.80;99.90;;;;;;5088474;28;20457;-60
2023/05/08 01:16:19;;;;;;;12.20;11.70;;;21.90;99.90;;;;;;5093076;28;20807;-60
2023/05/08 01:18:53;;;;;;;13.13;12.43;;;21.80;99.90;;;;;;5081604;28;20530;-60
2023/05/08 01:21:28;;;;;;;12.03;11.60;;;21.80;99.90;;;;;;5053986;28;20501;-60
2023/05/08 01:24:29;;;;;;;12.27;11.60;;;21.80;99.90;;;;;;5052987;28;20485;-59
2023/05/08 01:27:22;;;;;;;11.80;11.30;;;21.80;99.90;;;;;;5052388;28;20490;-61
2023/05/08 01:30:37;;;;;;;12.37;11.87;;;21.80;99.90;;;;;;5052585;28;20995;-59
2023/05/08 01:33:12;;;;;;;12.00;11.50;;;21.80;99.90;;;;;;5052768;28;20448;-60
2023/05/08 01:35:45;;;;;;;11.97;11.47;;;21.80;99.90;;;;;;5052542;28;20479;-59
2023/05/08 01:38:19;;;;;;;11.87;11.47;;;21.80;99.90;;;;;;5052133;28;20499;-61
2023/05/08 01:40:53;;;;;;;12.77;12.37;;;21.70;99.90;;;;;;5052615;28;20910;-60
2023/05/08 01:43:29;;;;;;;13.43;12.70;;;21.80;99.90;;;;;;5052497;28;20959;-61
2023/05/08 01:45:58;;;;;;;12.83;12.33;;;21.80;99.90;;;;;;5052210;28;20879;-60
2023/05/08 01:48:34;;;;;;;12.47;11.97;;;21.80;99.90;;;;;;5052259;28;20472;-60
2023/05/08 01:51:06;;;;;;;12.87;12.37;;;21.70;99.90;;;;;;5051417;28;20474;-60
2023/05/08 01:53:38;;;;;;;11.33;11.00;;;21.80;99.90;;;;;;5052354;28;20869;-61
2023/05/08 01:56:11;;;;;;;13.00;12.40;;;21.70;99.90;;;;;;5052021;28;20480;-60
2023/05/08 01:58:38;;;;;;;11.47;11.07;;;21.70;99.90;;;;;;5051898;28;20455;-61
2023/05/08 02:01:07;;;;;;;11.20;10.80;;;21.70;99.90;;;;;;5052110;28;20496;-60
2023/05/08 02:03:39;;;;;;;14.43;13.93;;;21.70;99.90;;;;;;5052177;28;20867;-61
2023/05/08 02:06:07;;;;;;;12.10;11.60;;;21.70;99.90;;;;;;5051931;28;20444;-60
2023/05/08 02:08:36;;;;;;;11.50;11.10;;;21.70;99.90;;;;;;5051605;28;20445;-60
2023/05/08 02:11:05;;;;;;;12.23;11.63;;;21.70;99.90;;;;;;5051727;28;20472;-58
2023/05/08 02:13:34;;;;;;;11.77;11.07;;;21.70;99.90;;;;;;5051834;28;20483;-59
2023/05/08 02:16:02;;;;;;;11.83;11.43;;;21.70;99.90;;;;;;5051923;28;20476;-60
2023/05/08 02:18:31;;;;;;;11.30;11.00;;;21.70;99.90;;;;;;5051606;28;20498;-61
2023/05/08 02:21:02;;;;;;;12.03;11.60;;;21.70;99.90;;;;;;5051215;28;20500;-60
2023/05/08 02:23:29;;;;;;;12.00;11.60;;;21.70;99.90;;;;;;5051816;28;20487;-61
2023/05/08 02:25:58;;;;;;;12.50;12.10;;;21.70;99.90;;;;;;5051812;28;20487;-61
2023/05/08 02:28:26;;;;;;;11.83;11.33;;;21.70;99.90;;;;;;5051515;28;20499;-60
2023/05/08 02:30:53;;;;;;;12.43;12.03;;;21.70;99.90;;;;;;5051246;28;20519;-60
2023/05/08 02:33:21;;;;;;;11.97;11.50;;;21.70;99.90;;;;;;5050995;28;20475;-58
2023/05/08 02:35:50;;;;;;;11.43;11.03;;;21.70;99.90;;;;;;5051553;28;20467;-60
2023/05/08 02:38:21;;;;;;;12.50;11.80;;;21.60;99.90;;;;;;5051304;28;20443;-60
2023/05/08 02:40:52;;;;;;;12.27;11.43;;;21.60;99.90;;;;;;5051464;28;20465;-60
2023/05/08 02:43:19;;;;;;;11.70;11.30;;;21.60;99.90;;;;;;5051366;28;20476;-60
2023/05/08 02:45:50;;;;;;;12.90;12.40;;;21.60;99.90;;;;;;5051558;28;20488;-59
2023/05/08 02:48:27;;;;;;;11.80;11.40;;;21.60;99.90;;;;;;5051221;28;20523;-60
2023/05/08 02:51:00;;;;;;;12.00;11.60;;;21.60;99.90;;;;;;5051421;28;20502;-61
2023/05/08 02:53:34;;;;;;;11.30;10.90;;;21.60;99.90;;;;;;5051464;28;20444;-60
2023/05/08 02:56:09;;;;;;;12.10;11.63;;;21.60;99.90;;;;;;5051184;28;20454;-61
2023/05/08 02:58:42;;;;;;;12.20;11.70;;;21.60;99.90;;;;;;5051291;28;20471;-59
2023/05/08 03:01:20;;;;;;;12.37;11.90;;;21.60;99.90;;;;;;5051260;28;20499;-61
2023/05/08 03:03:57;;;;;;;12.23;11.83;;;21.60;99.90;;;;;;5055164;28;20511;-59
2023/05/08 03:06:26;;;;;;;12.70;12.20;;;21.60;99.90;;;;;;5055378;28;20970;-60
2023/05/08 03:08:59;;;;;;;12.17;11.70;;;21.50;99.90;;;;;;5055148;28;20475;-58
2023/05/08 03:11:33;;;;;;;11.20;10.80;;;21.60;99.90;;;;;;5055170;28;21014;-60
2023/05/08 03:14:01;;;;;;;14.10;12.10;;;21.50;99.90;;;;;;5055383;28;20486;-61
2023/05/08 03:16:34;;;;;;;11.53;11.13;;;21.50;99.90;;;;;;5054810;28;20893;-62
2023/05/08 03:19:07;;;;;;;12.07;11.57;;;21.60;99.90;;;;;;5055180;28;20475;-61
2023/05/08 03:21:36;;;;;;;11.67;11.27;;;21.50;99.90;;;;;;5055228;28;20440;-61
2023/05/08 03:24:07;;;;;;;11.87;11.37;;;21.50;99.90;;;;;;5055199;28;20444;-61
2023/05/08 03:26:34;;;;;;;11.97;11.57;;;21.50;99.90;;;;;;5054742;28;20479;-61
2023/05/08 03:29:02;;;;;;;11.70;11.30;;;21.50;99.90;;;;;;5055067;28;20487;-61
2023/05/08 03:31:32;;;;;;;13.37;12.97;;;21.50;99.90;;;;;;5054845;28;20487;-62
2023/05/08 03:34:00;;;;;;;12.67;12.17;;;21.50;99.90;;;;;;5054888;28;20476;-62
2023/05/08 03:36:27;;;;;;;11.87;11.47;;;21.50;99.90;;;;;;5054708;28;20484;-62
2023/05/08 03:38:55;;;;;;;11.83;11.33;;;21.50;99.90;;;;;;5054830;28;20476;-60
2023/05/08 03:41:25;;;;;;;12.53;12.03;;;21.50;99.90;;;;;;5054698;28;20556;-60
2023/05/08 03:43:52;;;;;;;12.30;11.83;;;21.50;99.90;;;;;;5054520;28;20466;-61
2023/05/08 03:46:20;;;;;;;12.00;11.40;;;21.50;99.90;;;;;;5054537;28;20475;-62
2023/05/08 03:48:49;;;;;;;11.73;11.30;;;21.50;99.90;;;;;;5054541;28;20486;-62
2023/05/08 03:51:16;;;;;;;11.10;10.70;;;21.50;99.90;;;;;;5054553;28;20495;-61
2023/05/08 03:53:43;;;;;;;11.53;11.03;;;21.50;99.90;;;;;;5054489;28;20575;-62
2023/05/08 03:56:10;;;;;;;12.20;11.67;;;21.50;99.90;;;;;;5054130;28;20955;-61
2023/05/08 03:58:44;;;;;;;12.07;11.17;;;21.50;99.90;;;;;;5054344;28;20476;-61
2023/05/08 04:01:18;;;;;;;13.13;12.33;;;21.40;99.90;;;;;;5054447;28;20491;-61
2023/05/08 04:03:54;;;;;;;12.57;12.07;;;21.40;99.90;;;;;;5054433;28;20448;-61
2023/05/08 04:06:29;;;;;;;12.20;11.80;;;21.40;99.90;;;;;;5054322;28;20478;-62
2023/05/08 04:09:04;;;;;;;13.20;12.70;;;21.40;99.90;;;;;;5054119;28;20510;-61
2023/05/08 04:11:36;;;;;;;13.40;12.90;;;21.40;99.90;;;;;;5054375;28;20474;-61
2023/05/08 04:14:06;;;;;;;12.77;12.27;;;21.40;99.90;;;;;;5053603;28;20444;-61
2023/05/08 04:16:38;;;;;;;14.13;13.53;;;21.40;99.90;;;;;;5054008;28;20474;-62
2023/05/08 04:19:10;;;;;;;13.00;12.57;;;21.40;99.90;;;;;;5053946;28;20449;-61
2023/05/08 04:21:41;;;;;;;13.03;12.63;;;21.40;99.90;;;;;;5053851;28;20815;-61
2023/05/08 04:24:12;;;;;;;13.17;12.57;;;21.40;99.90;;;;;;5054055;28;20483;-61
2023/05/08 04:26:39;;;;;;;12.90;12.30;;;21.40;99.90;;;;;;5053859;28;20490;-61
2023/05/08 04:29:08;;;;;;;12.97;12.37;;;21.40;99.90;;;;;;5053790;28;20882;-60
2023/05/08 04:31:36;;;;;;;12.30;11.87;;;21.40;99.90;;;;;;5053825;28;20491;-62
2023/05/08 04:34:03;;;;;;;13.17;12.57;;;21.40;99.90;;;;;;5053351;28;20523;-61
2023/05/08 04:36:32;;;;;;;12.73;12.13;;;21.40;99.90;;;;;;5053643;28;20451;-62
2023/05/08 04:38:59;;;;;;;13.17;12.57;;;21.40;99.90;;;;;;5053665;28;20486;-61
2023/05/08 04:41:26;;;;;;;12.40;11.90;;;21.40;99.90;;;;;;5053612;28;20500;-62
2023/05/08 04:43:54;;;;;;;13.77;13.00;;;21.40;99.90;;;;;;5053683;28;20448;-59
2023/05/08 04:46:23;;;;;;;14.30;13.57;;;21.40;99.90;;;;;;5053197;28;20476;-62
2023/05/08 04:48:50;;;;;;;14.97;14.07;;;21.40;99.90;;;;;;5053469;28;20531;-61
2023/05/08 04:51:17;;;;;;;14.80;13.87;;;21.40;99.90;;;;;;5053264;28;20500;-61
2023/05/08 04:53:43;;;;;;;15.97;14.60;;;21.40;99.90;;;;;;5051828;28;20574;-59
2023/05/08 04:56:10;;;;;;;16.07;14.57;;;21.40;99.90;;;;;;5053308;28;20448;-60
2023/05/08 04:58:37;;;;;;;15.80;14.80;;;21.40;99.90;;;;;;5053320;28;20486;-60
2023/05/08 05:01:05;;;;;;;15.33;14.17;;;21.40;99.90;;;;;;5053150;28;20499;-59
2023/05/08 05:03:33;;;;;;;15.07;14.20;;;21.50;99.90;;;;;;5053167;28;20444;-59
2023/05/08 05:06:01;;;;;;;15.40;14.20;;;21.50;99.90;;;;;;5053223;28;20527;-60
2023/05/08 05:08:28;;;;;;;15.27;14.67;;;21.50;99.90;;;;;;5053023;28;20528;-59
2023/05/08 05:10:55;;;;;;;15.30;14.70;;;21.40;99.90;;;;;;5053059;28;20635;-59
2023/05/08 05:13:22;;;;;;;17.50;16.50;;;21.50;99.90;;;;;;5053060;28;20563;-58
2023/05/08 05:15:50;;;;;;;16.63;15.93;;;21.50;99.90;;;;;;5052960;28;20535;-61
2023/05/08 05:18:17;;;;;;;16.03;15.43;;;21.50;99.90;;;;;;5052699;28;20455;-60
2023/05/08 05:20:46;;;;;;;15.30;14.70;;;21.40;99.90;;;;;;5052847;28;20464;-59
2023/05/08 05:23:13;;;;;;;14.83;14.23;;;21.40;99.90;;;;;;5052869;28;20455;-60
2023/05/08 05:25:40;;;;;;;15.57;14.80;;;21.40;99.90;;;;;;5051830;28;20479;-60
2023/05/08 05:28:07;;;;;;;15.80;15.10;;;21.40;99.90;;;;;;5052648;28;20929;-61
2023/05/08 05:30:34;;;;;;;16.17;15.37;;;21.40;99.90;;;;;;5052681;28;20499;-60
2023/05/08 05:33:01;;;;;;;14.73;14.23;;;21.40;99.90;;;;;;5052705;28;20515;-59
2023/05/08 05:35:28;;;;;;;15.10;14.23;;;21.40;99.90;;;;;;5052620;28;20478;-60
2023/05/08 05:37:56;;;;;;;14.60;14.10;;;21.40;99.90;;;;;;5052538;28;20859;-58
2023/05/08 05:40:23;;;;;;;14.97;14.37;;;21.40;99.90;;;;;;5052546;28;20495;-59
2023/05/08 05:42:50;;;;;;;15.17;14.57;;;21.50;99.90;;;;;;5052486;28;20472;-59
2023/05/08 05:45:17;;;;;;;16.20;15.60;;;21.50;99.90;;;;;;5052683;28;20449;-59
2023/05/08 05:47:48;;;;;;;15.50;14.90;;;21.40;99.90;;;;;;5052364;28;20460;-61
2023/05/08 05:50:16;;;;;;;16.90;16.00;;;21.40;99.90;;;;;;5052356;28;20464;-61
2023/05/08 05:52:43;;;;;;;15.73;14.80;;;21.40;99.90;;;;;;5052299;28;20486;-61
2023/05/08 05:55:11;;;;;;;15.43;14.80;;;21.40;99.90;;;;;;5052570;28;20479;-61
2023/05/08 05:57:38;;;;;;;16.60;16.00;;;21.40;99.90;;;;;;5054470;28;20491;-61
2023/05/08 06:00:07;;;;;;;16.50;15.90;;;21.40;99.90;;;;;;5055580;28;20829;-61
2023/05/08 06:02:36;;;;;;;16.00;15.33;;;21.40;99.90;;;;;;5055727;28;20499;-59
2023/05/08 06:05:03;;;;;;;17.30;16.60;;;21.40;99.90;;;;;;5056275;28;20546;-61
2023/05/08 06:07:30;;;;;;;17.47;16.67;;;21.40;99.90;;;;;;5056082;28;20455;-61
2023/05/08 06:09:57;;;;;;;18.73;18.00;;;21.40;99.90;;;;;;5056113;28;20500;-60
2023/05/08 06:12:27;;;;;;;18.30;17.50;;;21.40;99.90;;;;;;5053066;28;20920;-59
2023/05/08 06:14:54;;;;;;;18.90;18.13;;;21.40;99.90;;;;;;5052039;28;20452;-58
2023/05/08 06:17:21;;;;;;;18.43;17.73;;;21.40;99.90;;;;;;5051586;28;20486;-60
2023/05/08 06:19:49;;;;;;;16.67;15.97;;;21.40;99.90;;;;;;5051476;28;20495;-59
2023/05/08 06:22:17;;;;;;;17.83;17.13;;;21.40;99.90;;;;;;5051833;28;20494;-61
2023/05/08 06:24:44;;;;;;;17.13;16.43;;;21.40;99.90;;;;;;5051684;28;20928;-60
2023/05/08 06:27:11;;;;;;;17.60;16.80;;;21.40;99.90;;;;;;5051583;28;20474;-60
2023/05/08 06:29:39;;;;;;;17.70;16.80;;;21.40;99.90;;;;;;5051453;28;20460;-60
2023/05/08 06:32:06;;;;;;;17.90;17.20;;;21.40;99.90;;;;;;5051643;28;20476;-61
2023/05/08 06:34:33;;;;;;;17.23;16.43;;;21.40;99.90;;;;;;5051436;28;21021;-59
2023/05/08 06:37:00;;;;;;;16.90;16.30;;;21.40;99.90;;;;;;5051111;28;20502;-60
2023/05/08 06:39:27;;;;;;;17.50;16.70;;;21.40;99.90;;;;;;5051425;28;20564;-59
2023/05/08 06:41:54;;;;;;;17.67;16.90;;;21.40;99.90;;;;;;5051475;28;20483;-59
2023/05/08 06:44:21;;;;;;;18.03;17.43;;;21.40;99.90;;;;;;5051506;28;20441;-59
2023/05/08 06:46:49;;;;;;;17.77;16.97;;;21.40;99.90;;;;;;5051268;28;20484;-59
2023/05/08 06:49:16;;;;;;;18.90;18.10;;;21.40;99.90;;;;;;5051473;28;20527;-60
2023/05/08 06:51:43;;;;;;;17.47;16.60;;;21.40;99.90;;;;;;5051475;28;20444;-56
2023/05/08 06:54:10;;;;;;;18.87;18.17;;;21.40;99.90;;;;;;5051324;28;20516;-60
2023/05/08 06:56:37;;;;;;;17.33;16.63;;;21.40;99.90;;;;;;5051221;28;20487;-59
2023/05/08 06:59:05;;;;;;;16.93;16.30;;;21.40;99.90;;;;;;5051230;28;20449;-61
2023/05/08 07:01:32;;;;;;;17.33;16.60;;;21.40;99.90;;;;;;5051401;28;21011;-61
2023/05/08 07:04:00;;;;;;;17.43;16.83;;;21.40;99.90;;;;;;5051341;28;20475;-60
2023/05/08 07:06:27;;;;;;;17.07;16.37;;;21.40;99.90;;;;;;5051156;28;20443;-60
2023/05/08 07:08:54;;;;;;;17.50;16.80;;;21.40;99.90;;;;;;5051279;28;20808;-59
2023/05/08 07:11:21;;;;;;;17.60;16.90;;;21.40;99.90;;;;;;5101391;22;20552;-67
2023/05/08 07:13:48;;;;;;;16.97;16.37;;;21.40;99.90;;;;;;5088170;28;20482;-66
2023/05/08 07:16:15;;;;;;;17.33;16.73;;;21.40;99.90;;;;;;5091326;28;20474;-66
2023/05/08 07:18:42;;;;;;;17.47;16.87;;;21.40;99.90;;;;;;5091343;28;20478;-66
2023/05/08 07:21:10;;;;;;;16.90;16.17;;;21.40;99.90;;;;;;5091245;28;20470;-66
2023/05/08 07:23:37;;;;;;;17.37;16.70;;;21.40;99.90;;;;;;5091371;28;20474;-66
2023/05/08 07:26:04;;;;;;;16.63;15.93;;;21.40;99.90;;;;;;5091492;28;20944;-67
2023/05/08 07:28:31;;;;;;;17.20;16.60;;;21.40;99.90;;;;;;5091136;28;20481;-66
2023/05/08 07:30:58;;;;;;;18.13;17.43;;;21.40;99.90;;;;;;5091167;28;20497;-66
2023/05/08 07:33:25;;;;;;;17.73;17.03;;;21.40;99.90;;;;;;5091262;28;20510;-67
2023/05/08 07:35:52;;;;;;;16.43;15.83;;;21.40;99.90;;;;;;5091399;28;20446;-67
2023/05/08 07:38:20;;;;;;;15.73;15.23;;;21.40;99.90;;;;;;5091125;28;20810;-67
2023/05/08 07:40:47;;;;;;;16.17;15.57;;;21.40;99.90;;;;;;5091159;28;20505;-67
2023/05/08 07:43:15;;;;;;;17.13;16.43;;;21.40;99.90;;;;;;5091137;28;20492;-67
2023/05/08 07:45:42;;;;;;;16.60;15.80;;;21.40;99.90;;;;;;5091170;28;20449;-67
2023/05/08 07:48:09;;;;;;;16.03;15.43;;;21.40;99.90;;;;;;5090999;28;20963;-67
2023/05/08 07:50:36;;;;;;;17.70;17.00;;;21.40;99.90;;;;;;5094226;28;20503;-67
2023/05/08 07:53:03;;;;;;;16.77;16.10;;;21.40;99.90;;;;;;5094891;28;21204;-66
2023/05/08 07:55:31;;;;;;;17.83;17.00;;;21.40;99.90;;;;;;5094781;28;20442;-66
2023/05/08 07:57:58;;;;;;;17.37;16.57;;;21.40;99.90;;;;;;5094561;28;20529;-66
2023/05/08 08:00:27;;;;;;;17.10;16.40;;;21.40;99.90;;;;;;5094674;28;20832;-67
2023/05/08 08:02:54;;;;;;;17.60;16.80;;;21.40;99.90;;;;;;5094708;28;21186;-67
2023/05/08 08:05:21;;;;;;;17.10;16.50;;;21.40;99.90;;;;;;5094698;28;20474;-67
2023/05/08 08:07:48;;;;;;;17.67;16.93;;;21.40;99.90;;;;;;5094432;28;20470;-67
2023/05/08 08:10:15;;;;;;;16.50;15.90;;;21.40;99.90;;;;;;5094381;28;20565;-67
2023/05/08 08:12:43;;;;;;;17.53;16.83;;;21.40;99.90;;;;;;5094393;28;20854;-67
2023/05/08 08:15:10;;;;;;;17.80;17.07;;;21.40;99.90;;;;;;5094506;28;20469;-66
2023/05/08 08:17:37;;;;;;;17.13;16.40;;;21.40;99.90;;;;;;5094165;28;20482;-66
2023/05/08 08:20:05;;;;;;;17.40;16.70;;;21.40;99.90;;;;;;5094311;28;20494;-66
2023/05/08 08:22:32;;;;;;;17.20;16.50;;;21.40;99.90;;;;;;5094270;28;20478;-67
2023/05/08 08:24:59;;;;;;;18.00;17.13;;;21.40;99.90;;;;;;5094123;28;20470;-67
2023/05/08 08:27:26;;;;;;;17.60;16.90;;;21.40;99.90;;;;;;5094037;28;20476;-68
2023/05/08 08:29:54;;;;;;;17.67;16.90;;;21.40;99.90;;;;;;5094199;28;20490;-68
2023/05/08 08:32:21;;;;;;;18.13;17.33;;;21.50;99.90;;;;;;5094065;28;20478;-68
2023/05/08 08:34:48;;;;;;;18.20;17.40;;;21.50;99.90;;;;;;5094059;28;20883;-67
2023/05/08 08:37:15;;;;;;;17.87;17.07;;;21.50;99.90;;;;;;5093838;28;20470;-67
2023/05/08 08:39:42;;;;;;;17.90;17.10;;;21.50;99.90;;;;;;5093930;28;20575;-68
2023/05/08 08:42:09;;;;;;;17.93;17.03;;;21.50;99.90;;;;;;5093870;28;20480;-68
2023/05/08 08:44:36;;;;;;;18.40;17.70;;;21.50;99.90;;;;;;5093828;28;20473;-67
2023/05/08 08:47:05;;;;;;;18.17;17.40;;;21.50;99.90;;;;;;5093637;28;20454;-67
2023/05/08 08:49:35;;;;;;;18.90;18.20;;;21.50;99.90;;;;;;5093826;28;20485;-68
2023/05/08 08:52:06;;;;;;;18.37;17.67;;;21.50;99.90;;;;;;5093860;28;20477;-67
2023/05/08 08:54:35;;;;;;;17.60;16.90;;;21.50;99.90;;;;;;5093773;28;20992;-68
2023/05/08 08:57:07;;;;;;;16.30;15.63;;;21.50;99.90;;;;;;5093522;28;20459;-67
2023/05/08 08:59:34;;;;;;;17.53;16.53;;;21.50;99.90;;;;;;5093393;28;20442;-67
2023/05/08 09:02:10;;;;;;;17.77;17.07;;;21.50;99.90;;;;;;5093602;28;20477;-67
2023/05/08 09:04:37;;;;;;;17.00;16.40;;;21.50;99.90;;;;;;5093691;28;20528;-67
2023/05/08 09:07:06;;;;;;;17.37;16.67;;;21.40;99.90;;;;;;5093283;28;20484;-66
2023/05/08 09:09:34;;;;;;;17.73;16.93;;;21.50;99.90;;;;;;5093211;28;20851;-67
2023/05/08 09:12:01;;;;;;;17.03;16.33;;;21.50;99.90;;;;;;5093402;28;20503;-69
2023/05/08 09:14:28;;;;;;;16.87;16.27;;;21.50;99.90;;;;;;5093199;28;20478;-67
2023/05/08 09:16:55;;;;;;;18.23;17.53;;;21.50;99.90;;;;;;5093140;28;20474;-66
2023/05/08 09:19:23;;;;;;;19.07;18.27;;;21.50;99.90;;;;;;5093142;28;20482;-66
2023/05/08 09:21:51;;;;;;;17.90;17.20;;;21.50;99.90;;;;;;5093136;28;20534;-67
2023/05/08 09:24:19;;;;;;;18.60;17.90;;;21.50;99.90;;;;;;5093163;28;20940;-66
2023/05/08 09:26:46;;;;;;;17.03;16.43;;;21.50;99.90;;;;;;5092828;28;20484;-66
2023/05/08 09:29:15;;;;;;;18.50;17.70;;;21.50;99.90;;;;;;5092985;28;20485;-67
2023/05/08 09:31:43;;;;;;;17.80;17.00;;;21.50;99.90;;;;;;5093011;28;20462;-67
2023/05/08 09:34:11;;;;;;;18.07;17.27;;;21.50;99.90;;;;;;5092775;28;20516;-66
2023/05/08 09:36:40;;;;;;;17.60;16.90;;;21.50;99.90;;;;;;5092667;28;20474;-66
2023/05/08 09:39:12;;;;;;;16.67;16.07;;;21.50;99.90;;;;;;5092803;28;20450;-67
2023/05/08 09:41:39;;;;;;;17.30;16.57;;;21.50;99.90;;;;;;5092859;28;20462;-67
2023/05/08 09:44:07;;;;;;;18.20;17.50;;;21.50;99.90;;;;;;5092704;28;20518;-67
2023/05/08 09:46:34;;;;;;;16.80;16.20;;;21.50;99.90;;;;;;5092535;28;20442;-67
2023/05/08 09:49:03;;;;;;;16.60;16.00;;;21.60;99.90;;;;;;5092554;28;20984;-67
2023/05/08 09:51:31;;;;;;;16.33;15.80;;;21.50;99.90;;;;;;5092579;28;20493;-67
2023/05/08 09:54:02;;;;;;;16.97;16.37;;;21.50;99.90;;;;;;5092496;28;20520;-67
2023/05/08 09:56:37;;;;;;;17.33;16.73;;;21.50;99.90;;;;;;5092411;28;20448;-67
2023/05/08 09:59:06;;;;;;;17.37;16.73;;;21.50;99.90;;;;;;5092432;28;20690;-68
2023/05/08 10:01:34;;;;;;;17.97;17.33;;;21.50;99.90;;;;;;5092347;28;20462;-67
2023/05/08 10:04:02;;;;;;;17.33;16.73;;;21.60;99.90;;;;;;5092364;28;20478;-68
2023/05/08 10:06:29;;;;;;;16.47;15.87;;;21.60;99.90;;;;;;5092278;28;20446;-68
2023/05/08 10:09:12;;;;;;;17.70;16.93;;;21.60;99.90;;;;;;5092114;28;20874;-67
2023/05/08 10:11:39;;;;;;;16.60;16.00;;;21.60;99.90;;;;;;5091543;28;20475;-67
2023/05/08 10:14:07;;;;;;;17.43;16.77;;;21.60;99.90;;;;;;5092180;28;20989;-67
2023/05/08 10:16:42;;;;;;;16.60;16.03;;;21.60;99.90;;;;;;5092000;28;20529;-68
2023/05/08 10:19:13;;;;;;;16.63;16.03;;;21.60;99.90;;;;;;5092106;28;20481;-67
2023/05/08 10:21:43;;;;;;;16.87;16.27;;;21.60;99.90;;;;;;5092090;28;20462;-67
2023/05/08 10:24:16;;;;;;;17.10;16.50;;;21.60;99.90;;;;;;5091945;28;20443;-67
2023/05/08 10:26:44;;;;;;;16.30;15.60;;;21.60;99.90;;;;;;5091871;28;20465;-67
2023/05/08 10:29:18;;;;;;;16.47;15.87;;;21.60;99.90;;;;;;5091877;28;20511;-67
2023/05/08 10:31:50;;;;;;;19.40;18.60;;;21.60;99.90;;;;;;5091996;28;20448;-67
2023/05/08 10:34:19;;;;;;;16.67;16.07;;;21.60;99.90;;;;;;5091942;28;20564;-67
2023/05/08 10:36:47;;;;;;;17.50;16.90;;;21.70;99.90;;;;;;5091746;28;20478;-67
2023/05/08 10:39:16;;;;;;;17.77;17.17;;;21.70;99.90;;;;;;5091704;28;20952;-67
2023/05/08 10:41:43;;;;;;;17.17;16.60;;;21.70;99.90;;;;;;5091860;28;20993;-67
2023/05/08 10:44:11;;;;;;;16.50;15.90;;;21.70;99.90;;;;;;5091678;28;20466;-66
2023/05/08 10:46:44;;;;;;;17.53;16.83;;;21.70;99.90;;;;;;5091630;28;20450;-68
2023/05/08 10:49:18;;;;;;;16.97;16.37;;;21.70;99.90;;;;;;5091617;28;20445;-67
2023/05/08 10:51:56;;;;;;;17.20;16.60;;;21.70;99.90;;;;;;5091706;28;20437;-68
2023/05/08 10:54:38;;;;;;;18.43;17.73;;;21.70;99.90;;;;;;5091572;28;20581;-67
2023/05/08 10:57:09;;;;;;;17.53;16.87;;;21.70;99.90;;;;;;5091521;28;20474;-67
2023/05/08 10:59:37;;;;;;;16.33;15.80;;;21.70;99.90;;;;;;5091545;28;20489;-68
2023/05/08 11:02:05;;;;;;;17.90;17.20;;;21.70;99.90;;;;;;5091510;28;20493;-67
2023/05/08 11:04:33;;;;;;;16.90;16.20;;;21.70;99.90;;;;;;5091530;28;20442;-67
2023/05/08 11:07:00;;;;;;;17.00;16.30;;;21.70;99.90;;;;;;5091334;28;20484;-67
2023/05/08 11:09:30;;;;;;;16.47;15.87;;;21.70;99.80;;;;;;5091291;28;20482;-67
2023/05/08 11:12:08;;;;;;;16.60;15.97;;;21.70;99.80;;;;;;5091550;28;20861;-66
2023/05/08 11:14:37;;;;;;;16.20;15.70;;;21.70;99.70;;;;;;5091393;28;20478;-68
2023/05/08 11:17:08;;;;;;;17.37;16.70;;;21.70;99.60;;;;;;5091304;28;20471;-67
2023/05/08 11:19:36;;;;;;;17.50;16.90;;;21.70;99.50;;;;;;5091239;28;20477;-67
2023/05/08 11:22:31;;;;;;;17.80;17.20;;;21.70;99.40;;;;;;5091326;28;20920;-67
2023/05/08 11:25:05;;;;;;;16.80;16.10;;;21.70;99.30;;;;;;5095587;28;20473;-67
2023/05/08 11:28:14;;;;;;;17.53;16.93;;;21.80;99.20;;;;;;5095136;28;20478;-68
2023/05/08 11:30:40;;;;;;;16.00;15.50;;;21.70;99.10;;;;;;5095361;28;20485;-68
2023/05/08 11:33:14;;;;;;;15.93;15.43;;;21.80;99.10;;;;;;5095282;28;20473;-67
2023/05/08 11:35:56;;;;;;;16.60;16.10;;;21.80;99.00;;;;;;5095185;28;20486;-67
2023/05/08 11:38:28;;;;;;;17.77;16.97;;;21.80;98.90;;;;;;5095036;28;20972;-68
2023/05/08 11:41:01;;;;;;;16.07;15.57;;;21.80;98.80;;;;;;5095067;28;20498;-68
2023/05/08 11:44:13;;;;;;;18.90;18.20;;;21.80;98.60;;;;;;5095065;28;20499;-68
2023/05/08 11:46:42;;;;;;;17.23;16.63;;;21.80;98.50;;;;;;5094957;28;20437;-68
2023/05/08 11:49:15;;;;;;;16.67;16.07;;;21.80;98.30;;;;;;5094844;28;21039;-68
2023/05/08 11:51:44;;;;;;;16.97;16.40;;;21.80;98.30;;;;;;5094873;28;20462;-68
2023/05/08 11:54:13;;;;;;;19.13;18.43;;;21.80;98.20;;;;;;5094697;28;20438;-68
2023/05/08 11:56:41;;;;;;;16.93;16.33;;;21.80;98.10;;;;;;5094600;28;20482;-67
2023/05/08 11:59:09;;;;;;;16.90;16.30;;;21.80;98.00;;;;;;5094782;28;20493;-68
2023/05/08 12:01:36;;;;;;;16.97;16.37;;;21.80;97.90;;;;;;5094645;28;20497;-68
2023/05/08 12:04:04;;;;;;;16.97;16.47;;;21.80;97.90;;;;;;5094683;28;20470;-68
2023/05/08 12:06:32;;;;;;;16.07;15.57;;;21.90;97.80;;;;;;5094431;28;20474;-68
2023/05/08 12:09:00;;;;;;;17.27;16.67;;;21.90;97.70;;;;;;5094639;28;20482;-68
2023/05/08 12:11:27;;;;;;;18.00;17.40;;;21.90;97.70;;;;;;5094508;28;20466;-68
2023/05/08 12:13:55;;;;;;;16.90;16.40;;;21.90;97.80;;;;;;5094589;28;20451;-68
2023/05/08 12:16:23;;;;;;;18.00;17.40;;;21.90;97.70;;;;;;5094203;28;20516;-68
2023/05/08 12:18:52;;;;;;;16.63;16.13;;;21.90;97.60;;;;;;5094345;28;20450;-67
2023/05/08 12:21:20;;;;;;;18.17;17.47;;;21.90;97.60;;;;;;5094238;28;20992;-67
2023/05/08 12:23:47;;;;;;;17.17;16.57;;;21.90;98.00;;;;;;5094300;28;20958;-67
2023/05/08 12:26:14;;;;;;;17.10;16.50;;;21.90;97.80;;;;;;5094159;28;20466;-67
2023/05/08 12:28:43;;;;;;;17.10;16.53;;;21.90;97.70;;;;;;5094145;28;20496;-67
2023/05/08 12:31:12;;;;;;;14.73;14.23;;;21.90;97.80;;;;;;5094078;28;20493;-66
2023/05/08 12:33:39;;;;;;;16.10;15.60;;;21.90;97.80;;;;;;5094310;28;20446;-68
2023/05/08 12:36:06;;;;;;;16.90;16.27;;;21.90;97.80;;;;;;5093437;28;20478;-67
2023/05/08 12:38:33;;;;;;;17.70;17.10;;;21.90;97.90;;;;;;5094337;28;20442;-68
2023/05/08 12:41:05;;;;;;;17.83;17.13;;;22.00;97.80;;;;;;5094100;28;20565;-67